Time;durP1;ratioP1;P1;durP2;ratioP2;P2;SDS_P1;SDS_P2;PMS_P1;PMS_P2;Temp;Humidity;BMP_temperature;BMP_pressure;BME280_temperature;BME280_humidity;BME280_pressure;Samples;Min_cycle;Max_cycle;Signal;HPM_P1;HPM_P2
2021/01/08 00:02:18;;;;;;;15.75;10.82;;;;;;;;;;5034583;28;20238;-60
2021/01/08 00:04:45;;;;;;;17.17;11.32;;;;;;;;;;5036836;28;20198;-60
2021/01/08 00:07:12;;;;;;;14.90;10.77;;;;;;;;;;5038229;28;20210;-59
2021/01/08 00:09:39;;;;;;;14.82;11.13;;;;;;;;;;5035740;28;20206;-60
2021/01/08 00:12:06;;;;;;;14.35;10.43;;;;;;;;;;5036327;28;20222;-60
2021/01/08 00:14:34;;;;;;;11.98;10.23;;;;;;;;;;5036570;28;20207;-60
2021/01/08 00:17:00;;;;;;;13.07;11.00;;;;;;;;;;5035890;28;20264;-60
2021/01/08 00:19:27;;;;;;;13.98;10.85;;;;;;;;;;5036226;28;20198;-60
2021/01/08 00:21:54;;;;;;;13.18;10.55;;;;;;;;;;5035914;28;20285;-58
2021/01/08 00:24:21;;;;;;;14.15;10.25;;;;;;;;;;5040867;28;20213;-60
2021/01/08 00:26:48;;;;;;;12.50;10.75;;;;;;;;;;5040556;28;20210;-60
2021/01/08 00:29:15;;;;;;;12.82;10.18;;;;;;;;;;5039147;28;20309;-60
2021/01/08 00:31:43;;;;;;;13.45;9.75;;;;;;;;;;5038672;28;20600;-60
2021/01/08 00:34:11;;;;;;;14.32;10.45;;;;;;;;;;5037881;28;20240;-60
2021/01/08 00:36:37;;;;;;;14.25;10.93;;;;;;;;;;5037431;28;20202;-61
2021/01/08 00:39:05;;;;;;;12.70;10.10;;;;;;;;;;5037725;28;20198;-59
2021/01/08 00:41:33;;;;;;;14.88;11.18;;;;;;;;;;5037375;28;20333;-60
2021/01/08 00:44:00;;;;;;;14.18;10.30;;;;;;;;;;5037693;28;20245;-59
2021/01/08 00:46:33;;;;;;;14.07;11.35;;;;;;;;;;5036999;28;20199;-59
2021/01/08 00:49:01;;;;;;;14.38;10.75;;;;;;;;;;5037288;28;20221;-60
2021/01/08 00:51:28;;;;;;;15.00;10.82;;;;;;;;;;5037228;28;20319;-60
2021/01/08 00:53:55;;;;;;;12.88;9.73;;;;;;;;;;5039184;28;20202;-60
2021/01/08 00:56:22;;;;;;;12.13;9.27;;;;;;;;;;5040198;28;20206;-60
2021/01/08 00:58:49;;;;;;;13.98;10.57;;;;;;;;;;5036922;28;20194;-59
2021/01/08 01:01:16;;;;;;;13.18;10.40;;;;;;;;;;5036739;28;20253;-60
2021/01/08 01:03:43;;;;;;;13.52;9.75;;;;;;;;;;5036627;28;20202;-59
2021/01/08 01:06:11;;;;;;;15.52;10.65;;;;;;;;;;5036583;28;20202;-59
2021/01/08 01:08:37;;;;;;;13.77;10.13;;;;;;;;;;5037447;28;20288;-60
2021/01/08 01:11:04;;;;;;;11.82;8.63;;;;;;;;;;5036605;28;20253;-59
2021/01/08 01:13:31;;;;;;;12.07;8.70;;;;;;;;;;5036613;28;20217;-61
2021/01/08 01:15:58;;;;;;;11.93;8.18;;;;;;;;;;5037012;28;20206;-60
2021/01/08 01:18:25;;;;;;;12.40;9.10;;;;;;;;;;5036732;28;20205;-60
2021/01/08 01:20:52;;;;;;;10.30;8.40;;;;;;;;;;5036230;28;20219;-60
2021/01/08 01:23:19;;;;;;;11.60;8.77;;;;;;;;;;5036458;28;20206;-60
2021/01/08 01:25:46;;;;;;;11.55;8.82;;;;;;;;;;5036147;28;20203;-60
2021/01/08 01:28:13;;;;;;;12.57;9.15;;;;;;;;;;5036288;28;20214;-60
2021/01/08 01:30:39;;;;;;;12.77;9.43;;;;;;;;;;5036693;28;20218;-60
2021/01/08 01:33:06;;;;;;;12.90;10.20;;;;;;;;;;5036754;28;20206;-60
2021/01/08 01:35:33;;;;;;;13.60;10.00;;;;;;;;;;5039411;28;20206;-59
2021/01/08 01:38:00;;;;;;;11.95;9.82;;;;;;;;;;5044274;28;20199;-60
2021/01/08 01:40:27;;;;;;;12.93;9.80;;;;;;;;;;5036219;28;20210;-60
2021/01/08 01:42:54;;;;;;;11.30;9.25;;;;;;;;;;5036317;28;20703;-59
2021/01/08 01:45:21;;;;;;;14.05;9.55;;;;;;;;;;5037169;28;20252;-60
2021/01/08 01:47:47;;;;;;;12.57;8.82;;;;;;;;;;5036437;28;20406;-60
2021/01/08 01:50:15;;;;;;;11.55;8.57;;;;;;;;;;5035835;28;20209;-60
2021/01/08 01:52:41;;;;;;;13.35;8.85;;;;;;;;;;5035945;28;20207;-60
2021/01/08 01:55:08;;;;;;;12.27;8.20;;;;;;;;;;5036255;28;20202;-61
2021/01/08 01:57:36;;;;;;;13.02;8.60;;;;;;;;;;5036137;28;20202;-60
2021/01/08 02:00:04;;;;;;;10.70;8.05;;;;;;;;;;5036224;28;20198;-60
2021/01/08 02:02:35;;;;;;;11.05;9.48;;;;;;;;;;5035734;28;20237;-60
2021/01/08 02:05:02;;;;;;;12.50;8.95;;;;;;;;;;5035610;28;20686;-60
2021/01/08 02:07:30;;;;;;;12.52;9.50;;;;;;;;;;5035552;28;20281;-59
2021/01/08 02:09:58;;;;;;;14.02;9.68;;;;;;;;;;5035509;28;20213;-59
2021/01/08 02:12:27;;;;;;;13.07;9.27;;;;;;;;;;5034988;28;20222;-60
2021/01/08 02:14:55;;;;;;;10.82;8.52;;;;;;;;;;5035334;28;20202;-60
2021/01/08 02:17:22;;;;;;;10.43;8.43;;;;;;;;;;5034956;28;20580;-60
2021/01/08 02:19:50;;;;;;;10.63;8.18;;;;;;;;;;5035221;28;20290;-60
2021/01/08 02:22:20;;;;;;;13.52;9.20;;;;;;;;;;5034798;28;20737;-60
2021/01/08 02:24:51;;;;;;;14.40;10.57;;;;;;;;;;5034963;28;20198;-60
2021/01/08 02:27:19;;;;;;;13.30;9.13;;;;;;;;;;5035125;28;20187;-60
2021/01/08 02:29:46;;;;;;;11.10;8.40;;;;;;;;;;5035052;28;20240;-60
2021/01/08 02:32:13;;;;;;;12.50;9.07;;;;;;;;;;5035072;28;20226;-60
2021/01/08 02:34:40;;;;;;;13.85;9.38;;;;;;;;;;5035278;28;20674;-60
2021/01/08 02:37:07;;;;;;;12.20;9.10;;;;;;;;;;5036901;28;20210;-59
2021/01/08 02:39:34;;;;;;;13.27;9.50;;;;;;;;;;5037016;28;20666;-59
2021/01/08 02:42:02;;;;;;;11.82;8.73;;;;;;;;;;5035522;28;20602;-59
2021/01/08 02:44:29;;;;;;;13.75;9.90;;;;;;;;;;5034936;28;20682;-60
2021/01/08 02:46:56;;;;;;;11.65;8.32;;;;;;;;;;5034938;28;20213;-60
2021/01/08 02:49:23;;;;;;;13.23;9.45;;;;;;;;;;5035651;28;20226;-60
2021/01/08 02:51:50;;;;;;;17.30;9.93;;;;;;;;;;5036867;28;20225;-59
2021/01/08 02:54:17;;;;;;;14.70;10.13;;;;;;;;;;5036148;28;20248;-59
2021/01/08 02:56:45;;;;;;;13.60;9.43;;;;;;;;;;5036472;28;20202;-59
2021/01/08 02:59:12;;;;;;;11.68;7.90;;;;;;;;;;5036892;28;20663;-60
2021/01/08 03:01:40;;;;;;;15.20;11.07;;;;;;;;;;5036224;28;20230;-59
2021/01/08 03:04:07;;;;;;;14.20;8.98;;;;;;;;;;5035774;28;20555;-60
2021/01/08 03:06:34;;;;;;;15.55;11.07;;;;;;;;;;5036368;28;20206;-60
2021/01/08 03:09:01;;;;;;;14.75;10.90;;;;;;;;;;5034226;28;20222;-60
2021/01/08 03:11:28;;;;;;;15.73;11.30;;;;;;;;;;5034070;28;20317;-60
2021/01/08 03:13:55;;;;;;;15.32;9.98;;;;;;;;;;5034501;28;20600;-60
2021/01/08 03:16:22;;;;;;;16.25;10.98;;;;;;;;;;5034079;28;20610;-60
2021/01/08 03:18:50;;;;;;;15.13;10.55;;;;;;;;;;5033992;28;20198;-59
2021/01/08 03:21:17;;;;;;;16.10;10.25;;;;;;;;;;5034058;28;20272;-60
2021/01/08 03:23:44;;;;;;;16.13;10.60;;;;;;;;;;5033880;28;20587;-60
2021/01/08 03:26:10;;;;;;;14.30;10.23;;;;;;;;;;5033986;28;20206;-59
2021/01/08 03:28:37;;;;;;;14.20;10.32;;;;;;;;;;5034720;28;20257;-59
2021/01/08 03:31:04;;;;;;;12.25;9.38;;;;;;;;;;5038086;28;20229;-60
2021/01/08 03:33:30;;;;;;;14.30;10.75;;;;;;;;;;5034103;28;20202;-57
2021/01/08 03:35:58;;;;;;;15.07;9.90;;;;;;;;;;5037574;28;20229;-60
2021/01/08 03:38:25;;;;;;;15.82;10.63;;;;;;;;;;5037388;28;20209;-60
2021/01/08 03:40:52;;;;;;;15.00;10.20;;;;;;;;;;5033786;28;20226;-59
2021/01/08 03:43:18;;;;;;;12.10;9.68;;;;;;;;;;5033512;28;20210;-59
2021/01/08 03:45:45;;;;;;;11.20;9.20;;;;;;;;;;5033626;28;20229;-59
2021/01/08 03:48:12;;;;;;;15.15;9.85;;;;;;;;;;5033614;28;20222;-60
2021/01/08 03:50:38;;;;;;;11.85;8.70;;;;;;;;;;5033510;28;20237;-59
2021/01/08 03:53:06;;;;;;;13.25;9.48;;;;;;;;;;5033919;28;20613;-59
2021/01/08 03:55:33;;;;;;;13.40;9.80;;;;;;;;;;5033922;28;20248;-60
2021/01/08 03:58:00;;;;;;;12.15;8.77;;;;;;;;;;5032963;28;20194;-60
2021/01/08 04:00:27;;;;;;;14.15;8.80;;;;;;;;;;5033467;28;20241;-60
2021/01/08 04:02:53;;;;;;;14.25;9.32;;;;;;;;;;5033648;28;20657;-59
2021/01/08 04:07:33;;;;;;;12.82;9.27;;;;;;;;;;5132523;27;20599;-60
2021/01/08 04:10:00;;;;;;;13.50;10.02;;;;;;;;;;5131666;27;20248;-60
2021/01/08 04:12:27;;;;;;;13.85;9.40;;;;;;;;;;5131687;27;20225;-59
2021/01/08 04:14:54;;;;;;;13.70;8.88;;;;;;;;;;5132961;27;20199;-59
2021/01/08 04:17:20;;;;;;;13.25;9.23;;;;;;;;;;5134702;27;20269;-59
2021/01/08 04:19:47;;;;;;;11.90;8.13;;;;;;;;;;5133279;27;20643;-59
2021/01/08 04:22:14;;;;;;;14.40;10.43;;;;;;;;;;5132184;27;20219;-60
2021/01/08 04:24:41;;;;;;;11.93;9.40;;;;;;;;;;5132708;27;20195;-60
2021/01/08 04:27:08;;;;;;;12.48;9.30;;;;;;;;;;5131679;27;20237;-60
2021/01/08 04:29:35;;;;;;;15.70;9.93;;;;;;;;;;5133141;27;20232;-60
2021/01/08 04:32:02;;;;;;;11.90;8.48;;;;;;;;;;5133889;27;20219;-60
2021/01/08 04:34:28;;;;;;;11.18;7.72;;;;;;;;;;5133778;27;20199;-61
2021/01/08 04:36:56;;;;;;;12.07;9.07;;;;;;;;;;5133515;27;20199;-60
2021/01/08 04:39:23;;;;;;;13.98;10.00;;;;;;;;;;5133977;27;20215;-60
2021/01/08 04:41:51;;;;;;;15.68;10.18;;;;;;;;;;5132863;27;20215;-60
2021/01/08 04:44:17;;;;;;;13.90;8.95;;;;;;;;;;5132263;27;20199;-59
2021/01/08 04:46:44;;;;;;;13.95;9.73;;;;;;;;;;5131955;27;20224;-60
2021/01/08 04:49:11;;;;;;;14.48;9.68;;;;;;;;;;5133214;27;20209;-59
2021/01/08 04:51:38;;;;;;;13.73;9.82;;;;;;;;;;5132299;27;20507;-60
2021/01/08 04:54:05;;;;;;;12.68;8.75;;;;;;;;;;5130929;27;20542;-60
2021/01/08 04:56:34;;;;;;;15.65;10.13;;;;;;;;;;5132383;27;20206;-60
2021/01/08 04:59:02;;;;;;;14.35;10.60;;;;;;;;;;5131646;27;20224;-61
2021/01/08 05:01:30;;;;;;;16.25;10.60;;;;;;;;;;5130458;27;20219;-59
2021/01/08 05:03:57;;;;;;;13.52;9.02;;;;;;;;;;5131253;27;20255;-59
2021/01/08 05:06:24;;;;;;;14.55;10.05;;;;;;;;;;5130809;27;20230;-59
2021/01/08 05:08:51;;;;;;;15.07;11.18;;;;;;;;;;5131367;27;20199;-60
2021/01/08 05:11:22;;;;;;;13.50;10.13;;;;;;;;;;5131431;27;20227;-60
2021/01/08 05:13:52;;;;;;;14.90;10.43;;;;;;;;;;5131319;27;20210;-60
2021/01/08 05:16:21;;;;;;;16.60;10.20;;;;;;;;;;5130608;27;20195;-60
2021/01/08 05:18:48;;;;;;;13.88;10.25;;;;;;;;;;5117858;27;20199;-60
2021/01/08 05:21:15;;;;;;;13.10;9.05;;;;;;;;;;5117290;28;20219;-60
2021/01/08 05:23:42;;;;;;;14.18;9.10;;;;;;;;;;5117010;28;20667;-59
2021/01/08 05:26:12;;;;;;;15.18;8.98;;;;;;;;;;5117721;28;20220;-60
2021/01/08 05:28:39;;;;;;;11.68;8.75;;;;;;;;;;5117799;28;20677;-60
2021/01/08 05:31:06;;;;;;;12.60;9.02;;;;;;;;;;5117487;28;20230;-59
2021/01/08 05:33:35;;;;;;;11.00;7.32;;;;;;;;;;5116899;28;20687;-60
2021/01/08 05:36:01;;;;;;;11.77;8.77;;;;;;;;;;5118290;28;20252;-59
2021/01/08 05:38:29;;;;;;;10.60;7.70;;;;;;;;;;5121729;28;20200;-59
2021/01/08 05:41:01;;;;;;;14.00;7.85;;;;;;;;;;5125160;28;20280;-59
2021/01/08 05:43:29;;;;;;;11.15;8.20;;;;;;;;;;5117439;28;20276;-58
2021/01/08 05:46:07;;;;;;;10.77;8.43;;;;;;;;;;5117175;28;20223;-59
2021/01/08 05:48:35;;;;;;;11.50;7.60;;;;;;;;;;5117639;28;20195;-60
2021/01/08 05:51:02;;;;;;;11.90;8.07;;;;;;;;;;5116897;27;20706;-59
2021/01/08 05:53:29;;;;;;;10.82;8.48;;;;;;;;;;5118374;28;20200;-59
2021/01/08 05:55:56;;;;;;;11.25;8.40;;;;;;;;;;5117539;28;20261;-60
2021/01/08 05:58:23;;;;;;;12.00;8.38;;;;;;;;;;5117068;28;20203;-58
2021/01/08 06:00:57;;;;;;;12.07;8.05;;;;;;;;;;5115683;28;20224;-59
2021/01/08 06:03:24;;;;;;;10.00;8.00;;;;;;;;;;5116217;28;20200;-59
2021/01/08 06:05:54;;;;;;;10.98;8.55;;;;;;;;;;5116033;28;20269;-60
2021/01/08 06:08:21;;;;;;;12.88;9.10;;;;;;;;;;5121063;28;20264;-61
2021/01/08 06:10:52;;;;;;;12.80;8.57;;;;;;;;;;5116007;28;20259;-60
2021/01/08 06:13:19;;;;;;;11.43;8.15;;;;;;;;;;5116253;28;20192;-61
2021/01/08 06:15:47;;;;;;;12.20;9.00;;;;;;;;;;5116028;28;20199;-62
2021/01/08 06:18:15;;;;;;;12.10;8.95;;;;;;;;;;5115890;28;20302;-61
2021/01/08 06:20:42;;;;;;;14.32;10.13;;;;;;;;;;5115783;28;20242;-60
2021/01/08 06:23:10;;;;;;;11.38;8.55;;;;;;;;;;5115732;28;20233;-61
2021/01/08 06:25:38;;;;;;;12.88;8.80;;;;;;;;;;5116158;28;20203;-60
2021/01/08 06:28:05;;;;;;;11.68;9.02;;;;;;;;;;5115301;28;20614;-61
2021/01/08 06:30:34;;;;;;;13.82;9.40;;;;;;;;;;5114584;28;20203;-61
2021/01/08 06:33:05;;;;;;;12.75;8.93;;;;;;;;;;5115104;28;20694;-61
2021/01/08 06:35:32;;;;;;;12.88;8.63;;;;;;;;;;5115010;28;20187;-61
2021/01/08 06:38:00;;;;;;;14.45;10.30;;;;;;;;;;5115614;28;20254;-61
2021/01/08 06:40:38;;;;;;;12.48;8.88;;;;;;;;;;5115357;28;20199;-61
2021/01/08 06:43:07;;;;;;;12.48;9.68;;;;;;;;;;5115676;28;20241;-62
2021/01/08 06:45:34;;;;;;;15.68;9.77;;;;;;;;;;5115262;28;20295;-60
2021/01/08 06:48:03;;;;;;;13.52;9.25;;;;;;;;;;5116299;28;20252;-61
2021/01/08 06:50:35;;;;;;;14.00;10.77;;;;;;;;;;5116685;28;20207;-61
2021/01/08 06:53:10;;;;;;;14.00;9.95;;;;;;;;;;5116212;28;20578;-62
2021/01/08 06:55:39;;;;;;;15.93;9.80;;;;;;;;;;5116427;28;20248;-60
2021/01/08 06:58:06;;;;;;;11.40;8.20;;;;;;;;;;5115829;28;20239;-61
2021/01/08 07:00:34;;;;;;;12.23;9.48;;;;;;;;;;5116452;28;20204;-62
2021/01/08 07:03:04;;;;;;;14.65;9.43;;;;;;;;;;5116173;28;20264;-62
2021/01/08 07:05:31;;;;;;;14.93;9.77;;;;;;;;;;5114873;28;20215;-60
2021/01/08 07:07:59;;;;;;;13.82;9.48;;;;;;;;;;5115570;28;20184;-61
2021/01/08 07:10:25;;;;;;;15.73;9.63;;;;;;;;;;5115411;28;20199;-61
2021/01/08 07:12:54;;;;;;;15.35;10.00;;;;;;;;;;5116440;28;20200;-61
2021/01/08 07:15:21;;;;;;;11.57;8.98;;;;;;;;;;5115539;28;20570;-61
2021/01/08 07:17:52;;;;;;;15.93;8.88;;;;;;;;;;5114602;27;20620;-60
2021/01/08 07:20:20;;;;;;;12.60;9.25;;;;;;;;;;5114908;28;20559;-61
2021/01/08 07:22:51;;;;;;;12.40;8.05;;;;;;;;;;5114469;28;20200;-61
2021/01/08 07:25:18;;;;;;;10.18;7.05;;;;;;;;;;5114195;28;20184;-60
2021/01/08 07:27:45;;;;;;;10.35;6.35;;;;;;;;;;5114381;28;20228;-61
2021/01/08 07:30:13;;;;;;;10.65;7.03;;;;;;;;;;5114244;28;20231;-60
2021/01/08 07:32:40;;;;;;;7.60;6.20;;;;;;;;;;5114532;28;20196;-59
2021/01/08 07:35:21;;;;;;;9.65;7.65;;;;;;;;;;5114338;28;20248;-60
2021/01/08 07:37:58;;;;;;;10.57;6.70;;;;;;;;;;5113966;28;20199;-60
2021/01/08 07:40:25;;;;;;;9.13;5.95;;;;;;;;;;5113330;28;20253;-59
2021/01/08 07:42:58;;;;;;;9.00;5.90;;;;;;;;;;5119779;27;20195;-59
2021/01/08 07:45:44;;;;;;;7.28;5.47;;;;;;;;;;5119269;28;20187;-60
2021/01/08 07:48:16;;;;;;;8.00;5.57;;;;;;;;;;5114268;28;20631;-60
2021/01/08 07:50:51;;;;;;;7.90;5.80;;;;;;;;;;5115024;28;20319;-60
2021/01/08 07:53:32;;;;;;;7.28;4.90;;;;;;;;;;5115452;28;20184;-59
2021/01/08 07:56:05;;;;;;;8.50;5.50;;;;;;;;;;5114895;28;20196;-60
2021/01/08 07:58:32;;;;;;;6.25;4.75;;;;;;;;;;5115209;28;20188;-60
2021/01/08 08:00:59;;;;;;;8.30;5.65;;;;;;;;;;5114396;28;20222;-60
2021/01/08 08:03:26;;;;;;;7.20;5.35;;;;;;;;;;5114849;28;20199;-60
2021/01/08 08:05:53;;;;;;;8.55;6.47;;;;;;;;;;5114449;28;20227;-60
2021/01/08 08:08:20;;;;;;;8.93;6.28;;;;;;;;;;5114824;28;20210;-59
2021/01/08 08:10:46;;;;;;;10.43;6.88;;;;;;;;;;5114506;28;20220;-60
2021/01/08 08:13:14;;;;;;;8.30;5.72;;;;;;;;;;5119155;28;20199;-63
2021/01/08 08:15:47;;;;;;;9.25;5.40;;;;;;;;;;5120853;28;20660;-59
2021/01/08 08:18:15;;;;;;;8.02;5.97;;;;;;;;;;5121400;28;20340;-62
2021/01/08 08:20:42;;;;;;;6.65;5.15;;;;;;;;;;5116809;28;20230;-60
2021/01/08 08:23:14;;;;;;;8.45;5.80;;;;;;;;;;5117289;28;20207;-60
2021/01/08 08:25:41;;;;;;;6.32;5.50;;;;;;;;;;5115041;28;20661;-60
2021/01/08 08:28:08;;;;;;;7.97;5.53;;;;;;;;;;5115194;28;20290;-59
2021/01/08 08:30:35;;;;;;;17.98;5.93;;;;;;;;;;5114610;28;20207;-60
2021/01/08 08:33:04;;;;;;;6.72;4.32;;;;;;;;;;5114247;28;20204;-60
2021/01/08 08:35:34;;;;;;;5.80;5.00;;;;;;;;;;5113588;28;20200;-61
2021/01/08 08:38:01;;;;;;;6.70;4.85;;;;;;;;;;5113475;28;20643;-60
2021/01/08 08:40:28;;;;;;;9.00;6.45;;;;;;;;;;5113774;28;20196;-61
2021/01/08 08:42:56;;;;;;;7.40;5.45;;;;;;;;;;5113162;28;20204;-61
2021/01/08 08:45:24;;;;;;;7.65;5.25;;;;;;;;;;5117073;28;20208;-59
2021/01/08 08:47:51;;;;;;;6.28;5.32;;;;;;;;;;5116128;28;20220;-59
2021/01/08 08:50:18;;;;;;;7.20;5.18;;;;;;;;;;5113398;28;20200;-59
2021/01/08 08:52:46;;;;;;;5.68;4.60;;;;;;;;;;5114352;28;20683;-59
2021/01/08 08:55:26;;;;;;;8.43;5.97;;;;;;;;;;5117905;28;20207;-59
2021/01/08 08:57:59;;;;;;;7.20;5.25;;;;;;;;;;5116825;28;20658;-59
2021/01/08 09:00:27;;;;;;;7.60;5.60;;;;;;;;;;5117338;28;20188;-60
2021/01/08 09:02:53;;;;;;;7.18;5.63;;;;;;;;;;5123697;28;20207;-60
2021/01/08 09:05:20;;;;;;;7.70;5.85;;;;;;;;;;5130250;28;20203;-61
2021/01/08 09:07:50;;;;;;;9.65;6.78;;;;;;;;;;5119111;28;20650;-59
2021/01/08 09:10:20;;;;;;;9.50;7.40;;;;;;;;;;5120299;28;20207;-59
2021/01/08 09:12:49;;;;;;;9.80;7.47;;;;;;;;;;5118072;28;20208;-61
2021/01/08 09:15:19;;;;;;;9.07;6.75;;;;;;;;;;5117902;27;20203;-60
2021/01/08 09:17:47;;;;;;;8.43;7.43;;;;;;;;;;5119773;28;20180;-60
2021/01/08 09:20:15;;;;;;;9.02;6.72;;;;;;;;;;5117515;28;20581;-60
2021/01/08 09:22:42;;;;;;;12.20;8.80;;;;;;;;;;5116989;28;20238;-59
2021/01/08 09:25:10;;;;;;;10.60;7.32;;;;;;;;;;5116822;28;20457;-58
2021/01/08 09:27:38;;;;;;;8.57;6.28;;;;;;;;;;5117580;28;20223;-60
2021/01/08 09:30:08;;;;;;;8.38;6.90;;;;;;;;;;5117086;28;20200;-59
2021/01/08 09:32:36;;;;;;;8.50;7.15;;;;;;;;;;5117732;28;20224;-59
2021/01/08 09:35:04;;;;;;;7.30;5.88;;;;;;;;;;5117210;28;20250;-59
2021/01/08 09:37:38;;;;;;;9.80;6.00;;;;;;;;;;5116867;28;20218;-58
2021/01/08 09:40:13;;;;;;;8.38;5.72;;;;;;;;;;5117090;28;20211;-58
2021/01/08 09:42:40;;;;;;;9.75;6.75;;;;;;;;;;5117483;28;20219;-59
2021/01/08 09:45:17;;;;;;;6.90;6.10;;;;;;;;;;5117179;28;20290;-59
2021/01/08 09:47:45;;;;;;;8.00;6.55;;;;;;;;;;5116066;28;20454;-58
2021/01/08 09:50:21;;;;;;;7.75;6.25;;;;;;;;;;5116764;28;20281;-59
2021/01/08 09:52:49;;;;;;;8.85;6.85;;;;;;;;;;5116553;28;20184;-61
2021/01/08 09:55:24;;;;;;;8.30;7.18;;;;;;;;;;5116678;28;20606;-60
2021/01/08 09:57:54;;;;;;;8.75;7.55;;;;;;;;;;5116768;28;20504;-58
2021/01/08 10:00:27;;;;;;;7.50;6.45;;;;;;;;;;5116875;28;20237;-59
2021/01/08 10:02:54;;;;;;;8.32;7.40;;;;;;;;;;5117066;28;20191;-58
2021/01/08 10:05:25;;;;;;;8.40;6.88;;;;;;;;;;5116938;28;20582;-59
2021/01/08 10:07:52;;;;;;;10.35;8.55;;;;;;;;;;5117117;28;20215;-59
2021/01/08 10:10:36;;;;;;;10.13;7.10;;;;;;;;;;5122843;28;20215;-59
2021/01/08 10:13:07;;;;;;;9.85;7.22;;;;;;;;;;5125783;28;20184;-59
2021/01/08 10:15:36;;;;;;;8.85;7.07;;;;;;;;;;5119036;28;20226;-59
2021/01/08 10:18:09;;;;;;;9.00;7.20;;;;;;;;;;5119132;28;20348;-57
2021/01/08 10:20:42;;;;;;;10.77;8.57;;;;;;;;;;5119540;28;20227;-58
2021/01/08 10:23:11;;;;;;;9.82;7.72;;;;;;;;;;5116983;28;20188;-59
2021/01/08 10:25:37;;;;;;;9.70;7.80;;;;;;;;;;5116650;28;20199;-58
2021/01/08 10:28:19;;;;;;;9.95;8.05;;;;;;;;;;5117666;28;20702;-59
2021/01/08 10:30:48;;;;;;;10.80;8.98;;;;;;;;;;5116274;28;20224;-58
2021/01/08 10:33:15;;;;;;;13.50;9.80;;;;;;;;;;5117358;28;20200;-59
2021/01/08 10:35:49;;;;;;;11.80;9.02;;;;;;;;;;5116908;28;20200;-59
2021/01/08 10:38:16;;;;;;;13.65;9.98;;;;;;;;;;5116752;28;20196;-59
2021/01/08 10:40:42;;;;;;;13.95;9.95;;;;;;;;;;5115877;28;20216;-59
2021/01/08 10:43:10;;;;;;;11.30;8.77;;;;;;;;;;5115785;28;20208;-58
2021/01/08 10:45:37;;;;;;;12.73;9.02;;;;;;;;;;5115208;28;20203;-59
2021/01/08 10:48:05;;;;;;;14.05;9.63;;;;;;;;;;5115117;28;20223;-59
2021/01/08 10:50:32;;;;;;;14.05;10.68;;;;;;;;;;5115128;28;20200;-58
2021/01/08 10:52:59;;;;;;;14.23;9.73;;;;;;;;;;5115163;28;20682;-60
2021/01/08 10:55:26;;;;;;;13.43;10.15;;;;;;;;;;5116012;28;20199;-58
2021/01/08 10:57:53;;;;;;;13.07;9.45;;;;;;;;;;5116351;28;20195;-59
2021/01/08 11:00:21;;;;;;;11.68;8.88;;;;;;;;;;5114752;28;20203;-59
2021/01/08 11:02:49;;;;;;;11.57;8.68;;;;;;;;;;5114990;28;20663;-58
2021/01/08 11:05:15;;;;;;;11.57;9.00;;;;;;;;;;5114815;28;20203;-58
2021/01/08 11:07:42;;;;;;;11.68;8.75;;;;;;;;;;5114952;28;20204;-58
2021/01/08 11:10:10;;;;;;;12.20;9.40;;;;;;;;;;5115434;28;20200;-58
2021/01/08 11:12:36;;;;;;;12.25;8.77;;;;;;;;;;5114635;28;20238;-60
2021/01/08 11:15:04;;;;;;;12.75;9.70;;;;;;;;;;5115592;28;20702;-60
2021/01/08 11:17:31;;;;;;;11.77;9.70;;;;;;;;;;5118973;28;20229;-59
2021/01/08 11:19:59;;;;;;;11.40;8.48;;;;;;;;;;5115653;28;20208;-59
2021/01/08 11:22:26;;;;;;;13.00;8.95;;;;;;;;;;5114368;28;20215;-59
2021/01/08 11:24:52;;;;;;;12.02;9.07;;;;;;;;;;5114159;28;20290;-60
2021/01/08 11:27:19;;;;;;;12.77;9.30;;;;;;;;;;5113970;28;20215;-59
2021/01/08 11:29:46;;;;;;;11.75;9.05;;;;;;;;;;5114298;28;20196;-60
2021/01/08 11:32:13;;;;;;;10.25;7.70;;;;;;;;;;5115352;28;20543;-61
2021/01/08 11:34:40;;;;;;;12.43;8.48;;;;;;;;;;5114729;28;20199;-60
2021/01/08 11:37:08;;;;;;;11.07;7.93;;;;;;;;;;5114525;28;20202;-60
2021/01/08 11:39:35;;;;;;;10.68;8.40;;;;;;;;;;5114034;28;20203;-59
2021/01/08 11:42:02;;;;;;;13.85;8.68;;;;;;;;;;5114076;28;20280;-59
2021/01/08 11:44:28;;;;;;;11.43;7.15;;;;;;;;;;5115048;28;20203;-60
2021/01/08 11:46:56;;;;;;;10.98;8.25;;;;;;;;;;5113418;28;20223;-60
2021/01/08 11:49:22;;;;;;;12.13;9.13;;;;;;;;;;5114260;28;20207;-59
2021/01/08 11:51:49;;;;;;;11.60;8.02;;;;;;;;;;5114360;28;20220;-60
2021/01/08 11:54:17;;;;;;;14.82;9.57;;;;;;;;;;5113803;28;20553;-60
2021/01/08 11:56:44;;;;;;;13.25;9.35;;;;;;;;;;5121363;28;20539;-58
2021/01/08 11:59:10;;;;;;;13.70;9.95;;;;;;;;;;5128156;28;20295;-58
2021/01/08 12:01:37;;;;;;;13.65;9.05;;;;;;;;;;5116729;28;20224;-59
2021/01/08 12:04:04;;;;;;;14.30;9.43;;;;;;;;;;5117297;28;20199;-60
2021/01/08 12:06:31;;;;;;;13.63;8.57;;;;;;;;;;5115421;28;20219;-58
2021/01/08 12:08:58;;;;;;;13.50;9.07;;;;;;;;;;5116131;28;20200;-59
2021/01/08 12:11:26;;;;;;;13.43;9.05;;;;;;;;;;5116086;28;20242;-59
2021/01/08 12:13:53;;;;;;;14.00;8.70;;;;;;;;;;5114375;28;20682;-59
2021/01/08 12:16:26;;;;;;;19.90;9.35;;;;;;;;;;5113973;28;20199;-58
2021/01/08 12:18:53;;;;;;;15.60;9.90;;;;;;;;;;5113841;28;20200;-58
2021/01/08 12:21:20;;;;;;;16.90;9.40;;;;;;;;;;5114561;28;20223;-58
2021/01/08 12:23:46;;;;;;;14.20;9.30;;;;;;;;;;5113470;28;20593;-59
2021/01/08 12:26:14;;;;;;;13.95;9.68;;;;;;;;;;5113798;28;20250;-58
2021/01/08 12:28:42;;;;;;;15.52;9.30;;;;;;;;;;5116525;28;20283;-59
2021/01/08 12:31:09;;;;;;;14.82;9.80;;;;;;;;;;5117629;28;20725;-59
2021/01/08 12:33:35;;;;;;;13.05;8.20;;;;;;;;;;5117415;28;20199;-59
2021/01/08 12:36:02;;;;;;;11.63;7.57;;;;;;;;;;5117651;28;20200;-58
2021/01/08 12:38:29;;;;;;;11.73;7.93;;;;;;;;;;5117647;28;20199;-58
2021/01/08 12:40:56;;;;;;;13.07;8.88;;;;;;;;;;5117787;28;20243;-58
2021/01/08 12:43:23;;;;;;;13.45;8.20;;;;;;;;;;5117455;28;20732;-57
2021/01/08 12:45:51;;;;;;;16.98;10.02;;;;;;;;;;5117222;28;20199;-58
2021/01/08 12:48:18;;;;;;;15.38;9.73;;;;;;;;;;5119039;28;20253;-58
2021/01/08 12:50:45;;;;;;;14.30;9.65;;;;;;;;;;5118501;28;20216;-59
2021/01/08 12:53:12;;;;;;;15.00;10.35;;;;;;;;;;5118891;28;20202;-59
2021/01/08 12:55:39;;;;;;;15.20;9.65;;;;;;;;;;5117828;28;20199;-59
2021/01/08 12:58:05;;;;;;;14.75;9.20;;;;;;;;;;5118580;28;20199;-59
2021/01/08 13:00:32;;;;;;;15.43;9.60;;;;;;;;;;5117403;28;20219;-59
2021/01/08 13:03:00;;;;;;;14.20;9.52;;;;;;;;;;5118407;28;20214;-59
2021/01/08 13:05:27;;;;;;;12.15;8.70;;;;;;;;;;5117737;28;20215;-60
2021/01/08 13:07:53;;;;;;;13.30;8.75;;;;;;;;;;5118511;28;20200;-58
2021/01/08 13:10:21;;;;;;;14.07;8.75;;;;;;;;;;5117430;28;20261;-59
2021/01/08 13:12:48;;;;;;;13.63;8.85;;;;;;;;;;5117056;28;20214;-59
2021/01/08 13:15:15;;;;;;;15.18;8.95;;;;;;;;;;5117119;28;20207;-60
2021/01/08 13:17:44;;;;;;;13.32;9.15;;;;;;;;;;5117000;28;20196;-59
2021/01/08 13:20:13;;;;;;;13.07;8.90;;;;;;;;;;5116867;28;20203;-58
2021/01/08 13:22:41;;;;;;;14.82;9.32;;;;;;;;;;5117010;28;20216;-59
2021/01/08 13:25:09;;;;;;;13.80;9.20;;;;;;;;;;5118287;28;20227;-58
2021/01/08 13:27:36;;;;;;;12.93;8.43;;;;;;;;;;5118184;28;20218;-59
2021/01/08 13:30:04;;;;;;;16.50;9.43;;;;;;;;;;5117729;28;20206;-58
2021/01/08 13:32:30;;;;;;;14.65;9.77;;;;;;;;;;5116983;28;20246;-60
2021/01/08 13:35:00;;;;;;;14.48;8.35;;;;;;;;;;5117323;28;20214;-60
2021/01/08 13:37:27;;;;;;;12.98;9.55;;;;;;;;;;5117175;28;20196;-59
2021/01/08 13:39:54;;;;;;;15.52;9.73;;;;;;;;;;5115977;28;20208;-60
2021/01/08 13:42:21;;;;;;;15.25;10.23;;;;;;;;;;5116723;28;20223;-60
2021/01/08 13:44:48;;;;;;;14.65;9.60;;;;;;;;;;5117131;28;20203;-60
2021/01/08 13:47:14;;;;;;;14.98;10.63;;;;;;;;;;5121013;28;20227;-58
2021/01/08 13:49:41;;;;;;;15.70;10.75;;;;;;;;;;5118149;28;20204;-58
2021/01/08 13:52:08;;;;;;;14.70;9.82;;;;;;;;;;5116901;28;20241;-59
2021/01/08 13:54:36;;;;;;;15.60;10.48;;;;;;;;;;5116236;28;20540;-60
2021/01/08 13:57:02;;;;;;;17.73;10.20;;;;;;;;;;5116599;27;20200;-59
2021/01/08 13:59:29;;;;;;;18.58;11.40;;;;;;;;;;5116558;28;20208;-59
2021/01/08 14:01:57;;;;;;;16.33;10.32;;;;;;;;;;5116485;28;20219;-58
2021/01/08 14:04:24;;;;;;;16.58;11.02;;;;;;;;;;5116299;28;20207;-58
2021/01/08 14:06:51;;;;;;;15.68;10.07;;;;;;;;;;5115855;28;20221;-59
2021/01/08 14:09:18;;;;;;;17.17;10.43;;;;;;;;;;5116153;28;20200;-60
2021/01/08 14:11:46;;;;;;;18.83;10.57;;;;;;;;;;5115879;28;20516;-60
2021/01/08 14:14:13;;;;;;;19.00;11.85;;;;;;;;;;5116065;28;20222;-59
2021/01/08 14:16:40;;;;;;;16.60;11.73;;;;;;;;;;5115968;28;20196;-59
2021/01/08 14:19:07;;;;;;;17.58;12.10;;;;;;;;;;5116247;28;20284;-60
2021/01/08 14:21:34;;;;;;;18.13;12.02;;;;;;;;;;5116663;28;20227;-59
2021/01/08 14:24:01;;;;;;;17.63;12.25;;;;;;;;;;5116446;28;20210;-60
2021/01/08 14:26:28;;;;;;;18.98;12.05;;;;;;;;;;5116738;28;20321;-59
2021/01/08 14:28:56;;;;;;;16.25;11.13;;;;;;;;;;5117123;28;20328;-59
2021/01/08 14:31:26;;;;;;;19.35;13.35;;;;;;;;;;5116826;28;20603;-59
2021/01/08 14:33:53;;;;;;;16.42;10.82;;;;;;;;;;5116954;28;20567;-60
2021/01/08 14:36:22;;;;;;;18.60;10.90;;;;;;;;;;5116615;28;20222;-59